createdAt,value
2019-03-12T00:02:08.146Z,1.33
2019-03-12T00:04:37.778Z,1.40
2019-03-12T00:07:07.543Z,1.60
2019-03-12T00:09:37.097Z,1.60
2019-03-12T00:12:08.012Z,1.97
2019-03-12T00:14:37.642Z,1.43
2019-03-12T00:17:07.299Z,1.60
2019-03-12T00:19:38.166Z,1.70
2019-03-12T00:22:07.828Z,1.73
2019-03-12T00:24:37.458Z,1.70
2019-03-12T00:27:07.120Z,1.50
2019-03-12T00:29:36.758Z,2.00
2019-03-12T00:32:07.658Z,2.00
2019-03-12T00:34:37.323Z,2.40
2019-03-12T00:37:06.962Z,2.30
2019-03-12T00:39:36.590Z,2.30
2019-03-12T00:42:06.220Z,2.40
2019-03-12T00:44:35.821Z,2.20
2019-03-12T00:47:06.716Z,1.97
2019-03-12T00:49:36.338Z,1.60
2019-03-12T00:52:05.937Z,1.73
2019-03-12T00:54:35.575Z,1.70
2019-03-12T00:57:05.197Z,1.40
2019-03-12T00:59:34.809Z,1.27
2019-03-12T01:02:04.446Z,1.60
2019-03-12T01:04:34.061Z,1.33
2019-03-12T01:07:03.665Z,1.27
2019-03-12T01:09:33.313Z,1.30
2019-03-12T01:12:02.921Z,1.20
2019-03-12T01:14:35.029Z,1.17
2019-03-12T01:17:04.617Z,1.27
2019-03-12T01:19:34.221Z,0.93
2019-03-12T01:22:03.849Z,1.30
2019-03-12T01:24:33.460Z,1.13
2019-03-12T01:27:03.067Z,1.30
2019-03-12T01:29:32.714Z,1.73
2019-03-12T01:32:02.310Z,1.80
2019-03-12T01:34:31.937Z,1.80
2019-03-12T01:37:01.535Z,2.17
2019-03-12T01:39:31.165Z,1.90
2019-03-12T01:42:00.782Z,2.30
2019-03-12T01:44:30.413Z,2.67
2019-03-12T01:47:00.016Z,2.40
2019-03-12T01:49:29.665Z,2.53
2019-03-12T01:51:59.330Z,2.33
2019-03-12T01:54:28.892Z,2.10
2019-03-12T01:56:58.573Z,2.03
2019-03-12T01:59:28.177Z,2.67
2019-03-12T02:01:57.979Z,2.00
2019-03-12T02:04:27.596Z,2.00
2019-03-12T02:06:57.593Z,1.97
2019-03-12T02:09:26.797Z,1.77
2019-03-12T02:11:56.405Z,1.87
2019-03-12T02:14:27.670Z,1.70
2019-03-12T02:16:57.264Z,1.10
2019-03-12T02:19:26.872Z,1.37
2019-03-12T02:21:56.480Z,1.57
2019-03-12T02:24:26.102Z,1.50
2019-03-12T02:26:55.705Z,1.30
2019-03-12T02:29:25.313Z,1.60
2019-03-12T02:31:55.084Z,1.30
2019-03-12T02:34:24.683Z,1.67
2019-03-12T02:36:54.294Z,1.27
2019-03-12T02:39:23.910Z,0.90
2019-03-12T02:41:53.550Z,1.27
2019-03-12T02:44:23.229Z,0.83
2019-03-12T02:46:52.830Z,0.90
2019-03-12T02:49:22.433Z,0.70
2019-03-12T02:51:52.093Z,0.70
2019-03-12T02:54:21.711Z,0.60
2019-03-12T02:56:51.330Z,0.70
2019-03-12T02:59:20.965Z,0.80
2019-03-12T03:01:50.604Z,0.70
2019-03-12T03:04:20.248Z,0.70
2019-03-12T03:06:54.208Z,0.67
2019-03-12T03:09:23.818Z,0.70
2019-03-12T03:11:53.445Z,0.80
2019-03-12T03:14:30.729Z,1.03
2019-03-12T03:17:00.320Z,1.03
2019-03-12T03:19:29.951Z,1.30
2019-03-12T03:21:59.590Z,1.27
2019-03-12T03:24:30.409Z,1.43
2019-03-12T03:27:00.024Z,1.40
2019-03-12T03:29:29.622Z,2.13
2019-03-12T03:31:59.233Z,1.37
2019-03-12T03:34:29.192Z,1.30
2019-03-12T03:36:58.502Z,1.60
2019-03-12T03:39:28.119Z,1.00
2019-03-12T03:41:57.744Z,0.93
2019-03-12T03:44:27.366Z,0.77
2019-03-12T03:46:57.062Z,0.93
2019-03-12T03:49:27.034Z,1.00
2019-03-12T03:51:56.671Z,0.90
2019-03-12T03:54:26.332Z,1.17
2019-03-12T03:56:57.132Z,1.07
2019-03-12T03:59:26.761Z,1.17
2019-03-12T04:01:57.594Z,0.67
2019-03-12T04:04:27.342Z,0.60
2019-03-12T04:06:56.978Z,0.90
2019-03-12T04:09:26.585Z,0.97
2019-03-12T04:11:56.233Z,1.07
2019-03-12T04:14:25.855Z,1.20
2019-03-12T04:16:55.696Z,1.03
2019-03-12T04:19:25.346Z,0.90
2019-03-12T04:21:54.936Z,1.20
2019-03-12T04:24:24.534Z,1.07
2019-03-12T04:26:54.191Z,1.10
2019-03-12T04:29:23.806Z,1.07
2019-03-12T04:31:53.421Z,1.13
2019-03-12T04:34:27.547Z,0.87
2019-03-12T04:36:57.154Z,1.00
2019-03-12T04:39:26.758Z,0.87
2019-03-12T04:41:56.381Z,1.10
2019-03-12T04:44:25.992Z,0.93
2019-03-12T04:46:55.575Z,0.93
2019-03-12T04:49:25.193Z,1.33
2019-03-12T04:51:54.896Z,1.07
2019-03-12T04:54:24.518Z,1.07
2019-03-12T04:56:54.113Z,0.93
2019-03-12T04:59:23.742Z,1.10
2019-03-12T05:01:53.390Z,1.80
2019-03-12T05:04:23.125Z,1.50
2019-03-12T05:06:52.730Z,1.80
2019-03-12T05:09:22.349Z,2.27
2019-03-12T05:11:52.063Z,2.23
2019-03-12T05:14:29.337Z,1.87
2019-03-12T05:17:15.213Z,1.50
2019-03-12T05:19:45.756Z,1.77
2019-03-12T05:22:16.781Z,1.10
2019-03-12T05:24:46.380Z,1.40
2019-03-12T05:27:17.292Z,1.63
2019-03-12T05:29:48.112Z,2.00
2019-03-12T05:32:17.810Z,2.50
2019-03-12T05:34:47.489Z,1.87
2019-03-12T05:37:17.214Z,2.73
2019-03-12T05:39:46.822Z,2.30
2019-03-12T05:42:16.448Z,2.23
2019-03-12T05:44:47.288Z,3.97
2019-03-12T05:47:16.933Z,3.13
2019-03-12T05:49:46.541Z,3.40
2019-03-12T05:52:16.135Z,2.80
2019-03-12T05:54:45.735Z,3.87
2019-03-12T05:57:15.372Z,3.40
2019-03-12T05:59:44.994Z,3.73
2019-03-12T06:02:14.614Z,5.70
2019-03-12T06:04:44.229Z,8.07
2019-03-12T06:07:13.840Z,6.47
2019-03-12T06:09:43.657Z,4.33
2019-03-12T06:12:13.261Z,3.30
2019-03-12T06:14:44.429Z,2.20
2019-03-12T06:17:14.025Z,2.00
2019-03-12T06:19:43.630Z,1.80
2019-03-12T06:22:13.233Z,1.60
2019-03-12T06:24:42.852Z,3.90
2019-03-12T06:27:12.600Z,3.93
2019-03-12T06:29:42.218Z,4.67
2019-03-12T06:33:24.189Z,4.63
2019-03-12T06:35:54.633Z,5.30
2019-03-12T06:38:44.829Z,4.90
2019-03-12T06:41:26.825Z,3.57
2019-03-12T06:44:00.707Z,2.53
2019-03-12T06:46:35.533Z,3.23
2019-03-12T06:49:13.924Z,3.23
2019-03-12T06:52:21.528Z,3.57
2019-03-12T06:54:59.426Z,3.87
2019-03-12T06:57:37.345Z,5.10
2019-03-12T07:00:13.902Z,6.33
2019-03-12T07:02:54.791Z,3.93
2019-03-12T07:05:29.971Z,3.07
2019-03-12T07:08:06.368Z,3.67
2019-03-12T07:10:41.065Z,3.43
2019-03-12T07:13:15.810Z,3.77
2019-03-12T07:15:51.933Z,3.77
2019-03-12T07:18:27.078Z,2.37
2019-03-12T07:21:01.846Z,3.43
2019-03-12T07:24:43.961Z,4.33
2019-03-12T07:27:23.938Z,4.17
2019-03-12T07:30:56.845Z,3.50
2019-03-12T07:33:32.612Z,1.77
2019-03-12T07:36:08.392Z,1.83
2019-03-12T07:38:43.025Z,1.93
2019-03-12T07:41:25.022Z,1.90
2019-03-12T07:43:57.642Z,2.07
2019-03-12T07:46:33.336Z,1.10
2019-03-12T07:49:11.200Z,1.87
2019-03-12T07:52:22.683Z,2.53
2019-03-12T07:55:09.683Z,1.77
2019-03-12T07:57:46.478Z,2.20
2019-03-12T08:00:23.133Z,3.10
2019-03-12T08:02:57.044Z,2.70
2019-03-12T08:05:35.881Z,2.87
2019-03-12T08:08:41.750Z,2.98
2019-03-12T08:11:16.577Z,3.20
2019-03-12T08:13:50.454Z,3.73
2019-03-12T08:16:24.310Z,2.80
2019-03-12T08:19:01.181Z,2.90
2019-03-12T08:21:38.145Z,1.73
2019-03-12T08:24:17.030Z,2.17
2019-03-12T08:26:54.626Z,2.50
2019-03-12T08:29:32.626Z,1.73
2019-03-12T08:32:06.855Z,1.35
2019-03-12T08:35:12.995Z,2.30
2019-03-12T08:37:46.872Z,2.05
2019-03-12T08:40:55.532Z,4.20
2019-03-12T08:43:33.417Z,4.97
2019-03-12T08:46:13.477Z,3.75
2019-03-12T08:48:50.161Z,4.00
2019-03-12T08:51:25.038Z,5.45
2019-03-12T08:54:17.168Z,4.20
2019-03-12T08:56:55.330Z,3.87
2019-03-12T09:00:32.104Z,2.62
2019-03-12T09:03:10.831Z,4.75
2019-03-12T09:05:44.720Z,4.92
2019-03-12T09:08:20.670Z,3.33
2019-03-12T09:11:26.872Z,4.17
2019-03-12T09:14:00.832Z,1.52
2019-03-12T09:16:38.782Z,2.45
2019-03-12T09:20:14.436Z,1.70
2019-03-12T09:23:20.829Z,2.90
2019-03-12T09:26:05.910Z,2.25
2019-03-12T09:28:41.559Z,2.35
2019-03-12T09:31:16.606Z,2.70
2019-03-12T09:33:53.526Z,2.20
2019-03-12T09:38:38.953Z,2.02
2019-03-12T09:41:17.090Z,1.60
2019-03-12T09:43:59.131Z,1.82
2019-03-12T09:46:34.162Z,1.95
2019-03-12T09:49:09.232Z,3.37
2019-03-12T09:51:48.051Z,1.90
2019-03-12T09:56:25.954Z,1.90
2019-03-12T10:00:01.239Z,2.30
2019-03-12T10:02:35.096Z,2.52
2019-03-12T10:05:09.017Z,1.37
2019-03-12T10:07:42.871Z,1.63
2019-03-12T10:10:17.510Z,2.10
2019-03-12T10:12:55.506Z,2.37
2019-03-12T10:15:33.675Z,2.00
2019-03-12T10:18:08.727Z,2.80
2019-03-12T10:20:43.502Z,2.70
2019-03-12T10:23:17.477Z,1.75
2019-03-12T10:26:25.596Z,1.80
2019-03-12T10:29:00.697Z,1.62
2019-03-12T10:31:45.598Z,2.00
2019-03-12T10:34:29.523Z,1.65
2019-03-12T10:37:13.128Z,1.98
2019-03-12T10:40:57.173Z,3.87
2019-03-12T10:43:41.276Z,1.35
2019-03-12T10:46:19.178Z,2.43
2019-03-12T10:48:50.048Z,1.80
2019-03-12T10:51:19.697Z,1.70
2019-03-12T10:53:49.431Z,1.92
2019-03-12T10:56:20.413Z,2.10
2019-03-12T10:58:50.089Z,2.50
2019-03-12T11:01:19.772Z,2.70
2019-03-12T11:03:49.463Z,4.50
2019-03-12T11:06:19.116Z,3.30
2019-03-12T11:08:48.763Z,2.60
2019-03-12T11:11:18.527Z,2.65
2019-03-12T11:13:49.470Z,2.40
2019-03-12T11:16:19.133Z,2.40
2019-03-12T11:18:48.778Z,1.90
2019-03-12T11:21:18.472Z,3.63
2019-03-12T11:23:48.079Z,1.40
2019-03-12T11:26:17.854Z,1.70
2019-03-12T11:28:47.487Z,1.60
2019-03-12T11:31:17.140Z,1.90
2019-03-12T11:33:49.233Z,1.73
2019-03-12T11:36:18.877Z,2.00
2019-03-12T11:38:48.552Z,2.00
2019-03-12T11:41:18.212Z,2.03
2019-03-12T11:43:47.833Z,2.37
2019-03-12T11:46:18.725Z,2.30
2019-03-12T11:48:48.351Z,2.33
2019-03-12T11:51:18.093Z,2.20
2019-03-12T11:53:47.971Z,2.80
2019-03-12T11:56:17.392Z,3.27
2019-03-12T11:58:47.189Z,1.80
2019-03-12T12:01:16.903Z,1.20
2019-03-12T12:03:46.637Z,1.77
2019-03-12T12:06:16.444Z,1.80
2019-03-12T12:08:46.071Z,1.63
2019-03-12T12:11:15.643Z,1.80
2019-03-12T12:13:45.345Z,1.83
2019-03-12T12:16:16.235Z,1.60
2019-03-12T12:18:45.841Z,1.70
2019-03-12T12:21:15.520Z,1.53
2019-03-12T12:23:45.220Z,2.00
2019-03-12T12:26:14.881Z,1.97
2019-03-12T12:28:44.542Z,2.00
2019-03-12T12:31:14.202Z,2.57
2019-03-12T12:33:43.892Z,1.90
2019-03-12T12:36:13.523Z,2.30
2019-03-12T12:38:43.143Z,2.47
2019-03-12T12:41:13.138Z,2.53
2019-03-12T12:43:46.422Z,2.87
2019-03-12T12:46:17.379Z,3.00
2019-03-12T12:48:47.083Z,1.87
2019-03-12T12:51:16.724Z,3.00
2019-03-12T12:53:46.375Z,3.10
2019-03-12T12:56:16.029Z,2.60
2019-03-12T12:58:45.666Z,2.47
2019-03-12T13:01:16.516Z,2.50
2019-03-12T13:03:47.462Z,2.70
2019-03-12T13:06:17.099Z,2.30
2019-03-12T13:08:49.062Z,2.50
2019-03-12T13:11:18.710Z,2.60
2019-03-12T13:13:48.411Z,3.57
2019-03-12T13:16:25.039Z,3.27
2019-03-12T13:18:49.015Z,3.53
2019-03-12T13:21:18.657Z,3.40
2019-03-12T13:23:48.383Z,2.63
2019-03-12T13:26:18.043Z,3.10
2019-03-12T13:28:47.685Z,2.27
2019-03-12T13:31:18.675Z,2.33
2019-03-12T13:33:48.335Z,2.43
2019-03-12T13:36:18.252Z,3.83
2019-03-12T13:38:49.267Z,2.93
2019-03-12T13:41:18.824Z,2.77
2019-03-12T13:43:48.502Z,3.37
2019-03-12T13:46:18.174Z,3.53
2019-03-12T13:48:48.037Z,3.30
2019-03-12T13:51:17.558Z,3.47
2019-03-12T13:53:47.235Z,2.87
2019-03-12T13:56:16.855Z,3.13
2019-03-12T13:58:48.957Z,3.63
2019-03-12T14:01:18.603Z,3.40
2019-03-12T14:03:48.251Z,2.90
2019-03-12T14:06:17.909Z,2.90
2019-03-12T14:08:47.720Z,3.13
2019-03-12T14:11:17.410Z,3.20
2019-03-12T14:13:47.042Z,3.87
2019-03-12T14:16:19.267Z,3.83
2019-03-12T14:18:48.955Z,3.43
2019-03-12T14:21:18.574Z,3.70
2019-03-12T14:24:03.970Z,3.30
2019-03-12T14:26:33.617Z,2.83
2019-03-12T14:29:03.308Z,3.80
2019-03-12T14:34:10.015Z,3.73
2019-03-12T14:36:39.768Z,4.90
2019-03-12T14:39:10.569Z,4.87
2019-03-12T14:41:41.387Z,4.33
2019-03-12T14:44:11.037Z,3.53
2019-03-12T14:46:40.698Z,4.10
2019-03-12T14:49:11.631Z,4.17
2019-03-12T14:51:53.897Z,4.60
2019-03-12T14:54:24.963Z,3.93
2019-03-12T14:56:54.626Z,5.00
2019-03-12T14:59:24.912Z,4.17
2019-03-12T15:01:56.855Z,4.13
2019-03-12T15:04:27.156Z,5.07
2019-03-12T15:06:56.839Z,5.40
2019-03-12T15:09:26.546Z,6.07
2019-03-12T15:11:56.204Z,5.20
2019-03-12T15:14:28.373Z,5.10
2019-03-12T15:16:58.055Z,3.37
2019-03-12T15:19:29.897Z,4.13
2019-03-12T15:21:59.507Z,4.03
2019-03-12T15:24:31.706Z,4.73
2019-03-12T15:27:02.111Z,4.63
2019-03-12T15:29:31.836Z,4.10
2019-03-12T15:32:04.414Z,3.53
2019-03-12T15:34:32.126Z,5.20
2019-03-12T15:37:01.859Z,8.50
2019-03-12T15:39:31.739Z,4.00
2019-03-12T15:42:01.796Z,3.20
2019-03-12T15:44:32.767Z,3.43
2019-03-12T15:47:03.708Z,3.60
2019-03-12T15:49:33.498Z,3.50
2019-03-12T15:52:04.558Z,3.90
2019-03-12T15:54:34.343Z,3.77
2019-03-12T15:57:04.090Z,3.70
2019-03-12T15:59:35.116Z,3.70
2019-03-12T16:02:04.790Z,3.50
2019-03-12T16:04:34.395Z,5.23
2019-03-12T16:07:04.133Z,6.60
2019-03-12T16:09:33.796Z,4.53
2019-03-12T16:12:04.794Z,3.73
2019-03-12T16:14:34.578Z,4.37
2019-03-12T16:17:04.200Z,5.20
2019-03-12T16:19:36.479Z,5.07
2019-03-12T16:22:06.127Z,5.33
2019-03-12T16:24:35.806Z,5.87
2019-03-12T16:27:05.473Z,23.50
2019-03-12T16:29:35.146Z,33.00
2019-03-12T16:32:04.788Z,16.90
2019-03-12T16:34:34.423Z,43.23
2019-03-12T16:37:04.099Z,36.57
2019-03-12T16:39:35.081Z,21.73
2019-03-12T16:42:04.754Z,12.80
2019-03-12T16:44:34.387Z,6.97
2019-03-12T16:47:04.034Z,5.70
2019-03-12T16:49:33.725Z,6.30
2019-03-12T16:52:04.606Z,7.00
2019-03-12T16:54:34.257Z,5.87
2019-03-12T16:57:03.910Z,4.70
2019-03-12T16:59:33.545Z,4.20
2019-03-12T17:02:03.330Z,4.30
2019-03-12T17:04:32.999Z,4.63
2019-03-12T17:07:03.978Z,5.00
2019-03-12T17:09:33.623Z,4.47
2019-03-12T17:12:05.816Z,4.30
2019-03-12T17:14:39.123Z,4.70
2019-03-12T17:17:05.359Z,4.73
2019-03-12T17:19:35.121Z,5.20
2019-03-12T17:22:04.788Z,6.80
2019-03-12T17:24:34.531Z,8.00
2019-03-12T17:27:04.333Z,14.33
2019-03-12T17:29:33.975Z,14.57
2019-03-12T17:32:03.646Z,14.83
2019-03-12T17:34:36.033Z,8.97
2019-03-12T17:37:04.135Z,9.03
2019-03-12T17:39:33.762Z,5.57
2019-03-12T17:42:05.953Z,7.13
2019-03-12T17:44:35.674Z,5.33
2019-03-12T17:47:06.646Z,7.50
2019-03-12T17:49:36.387Z,6.03
2019-03-12T17:52:07.315Z,6.40
2019-03-12T17:54:38.075Z,6.00
2019-03-12T17:57:07.853Z,6.70
2019-03-12T17:59:37.457Z,6.30
2019-03-12T18:02:07.178Z,7.33
2019-03-12T18:04:36.855Z,10.43
2019-03-12T18:07:06.526Z,15.33
2019-03-12T18:09:38.649Z,12.40
2019-03-12T18:12:08.763Z,16.20
2019-03-12T18:14:38.461Z,19.63
2019-03-12T18:17:08.663Z,19.60
2019-03-12T18:19:38.382Z,24.87
2019-03-12T18:22:08.049Z,24.00
2019-03-12T18:24:37.686Z,10.57
2019-03-12T18:27:08.689Z,21.30
2019-03-12T18:29:39.091Z,17.27
2019-03-12T18:32:11.255Z,21.47
2019-03-12T18:34:40.896Z,21.37
2019-03-12T18:37:10.524Z,23.33
2019-03-12T18:39:43.719Z,27.03
2019-03-12T18:42:19.927Z,29.43
2019-03-12T18:44:49.606Z,34.67
2019-03-12T18:47:20.537Z,26.77
2019-03-12T18:49:50.206Z,11.33
2019-03-12T18:52:19.853Z,12.90
2019-03-12T18:54:49.526Z,19.50
2019-03-12T18:57:19.265Z,22.67
2019-03-12T18:59:51.352Z,19.43
2019-03-12T19:02:20.977Z,16.90
2019-03-12T19:04:50.594Z,16.83
2019-03-12T19:07:22.605Z,10.57
2019-03-12T19:09:53.381Z,15.97
2019-03-12T19:12:26.684Z,17.27
2019-03-12T19:15:01.725Z,16.93
2019-03-12T19:17:33.967Z,21.57
2019-03-12T19:20:06.010Z,25.57
2019-03-12T19:22:36.611Z,31.93
2019-03-12T19:25:07.931Z,31.23
2019-03-12T19:27:37.616Z,43.47
2019-03-12T19:30:09.580Z,44.40
2019-03-12T19:32:43.555Z,55.77
2019-03-12T19:35:15.170Z,34.53
2019-03-12T19:37:47.875Z,27.20
2019-03-12T19:40:18.884Z,31.27
2019-03-12T19:42:50.703Z,53.20
2019-03-12T19:45:20.429Z,25.37
2019-03-12T19:47:50.170Z,16.87
2019-03-12T19:50:19.820Z,20.40
2019-03-12T19:52:49.505Z,35.33
2019-03-12T19:55:21.556Z,17.03
2019-03-12T19:57:51.208Z,17.13
2019-03-12T20:00:21.070Z,13.90
2019-03-12T20:02:50.817Z,23.70
2019-03-12T20:05:20.503Z,20.93
2019-03-12T20:07:53.866Z,16.63
2019-03-12T20:10:42.533Z,21.30
2019-03-12T20:13:26.443Z,8.83
2019-03-12T20:16:08.667Z,21.00
2019-03-12T20:18:52.383Z,22.37
2019-03-12T20:21:31.922Z,17.97
2019-03-12T20:24:16.875Z,10.67
2019-03-12T20:26:57.894Z,18.60
2019-03-12T20:29:56.621Z,20.03
2019-03-12T20:32:40.420Z,24.47
2019-03-12T20:35:25.065Z,23.30
2019-03-12T20:38:40.102Z,17.37
2019-03-12T20:43:26.461Z,13.73
2019-03-12T20:47:45.238Z,7.00
2019-03-12T20:50:27.444Z,16.40
2019-03-12T20:55:47.241Z,14.33
2019-03-12T20:58:36.418Z,13.80
2019-03-12T21:01:16.887Z,14.57
2019-03-12T21:04:02.565Z,12.87
2019-03-12T21:07:44.111Z,13.73
2019-03-12T21:13:32.526Z,12.73
2019-03-12T21:18:18.251Z,13.23
2019-03-12T21:21:03.835Z,7.87
2019-03-12T21:23:49.462Z,10.70
2019-03-12T21:26:50.097Z,11.33
2019-03-12T21:29:41.878Z,9.83
2019-03-12T21:32:11.843Z,12.00
2019-03-12T21:34:42.872Z,9.90
2019-03-12T21:37:12.776Z,8.57
2019-03-12T21:39:54.418Z,10.93
2019-03-12T21:42:12.107Z,10.30
2019-03-12T21:44:41.785Z,16.73
2019-03-12T21:47:12.649Z,16.03
2019-03-12T21:49:42.277Z,16.37
2019-03-12T21:52:11.939Z,9.73
2019-03-12T21:54:42.377Z,9.10
2019-03-12T21:57:13.322Z,8.33
2019-03-12T21:59:42.961Z,12.63
2019-03-12T22:02:13.878Z,9.63
2019-03-12T22:04:44.813Z,13.07
2019-03-12T22:07:14.450Z,9.07
2019-03-12T22:09:45.334Z,11.93
2019-03-12T22:12:14.958Z,14.30
2019-03-12T22:14:44.648Z,12.03
2019-03-12T22:17:15.616Z,11.50
2019-03-12T22:19:45.260Z,12.90
2019-03-12T22:22:20.407Z,12.17
2019-03-12T22:24:50.043Z,13.37
2019-03-12T22:27:19.751Z,13.60
2019-03-12T22:29:50.722Z,13.07
2019-03-12T22:32:20.375Z,11.80
2019-03-12T22:34:50.053Z,12.07
2019-03-12T22:37:19.943Z,7.07
2019-03-12T22:39:51.402Z,11.97
2019-03-12T22:42:21.105Z,8.80
2019-03-12T22:44:53.352Z,9.70
2019-03-12T22:47:23.278Z,9.33
2019-03-12T22:49:53.033Z,10.30
2019-03-12T22:52:23.823Z,9.77
2019-03-12T22:54:55.853Z,8.10
2019-03-12T22:57:25.544Z,9.87
2019-03-12T23:00:02.400Z,9.83
2019-03-12T23:02:39.070Z,5.63
2019-03-12T23:05:14.531Z,9.43
2019-03-12T23:07:49.931Z,8.03
2019-03-12T23:10:19.912Z,10.07
2019-03-12T23:12:49.642Z,9.93
2019-03-12T23:15:23.854Z,8.33
2019-03-12T23:17:54.514Z,8.27
2019-03-12T23:20:24.236Z,9.00
2019-03-12T23:22:55.415Z,9.47
2019-03-12T23:25:25.204Z,7.73
2019-03-12T23:27:54.920Z,7.43
2019-03-12T23:30:24.747Z,8.07
2019-03-12T23:32:55.643Z,8.90
2019-03-12T23:35:25.380Z,9.77
2019-03-12T23:37:55.115Z,8.77
2019-03-12T23:40:24.831Z,9.77
2019-03-12T23:42:56.016Z,8.80
2019-03-12T23:45:25.708Z,9.13
2019-03-12T23:47:55.405Z,8.90
2019-03-12T23:50:25.172Z,5.93
2019-03-12T23:52:56.056Z,6.57
2019-03-12T23:55:25.802Z,7.83
2019-03-12T23:57:55.512Z,7.60
